Terminal Aerodrome Forecast
Issued by NWS

Home | Current Version | Previous Version | Text Only | Print | Product List | Glossary On
Versions: 1 2 3 4 5 6 7 8 9 10 11 12 13 14 15 16 17 18
000
FTAK31 PAJN 191525 AAA
TAFAPG
TAF AMD
PAPG 191525Z 1915/2012 00000KT P6SM VCFG SCT003 OVC030
     FM191800 06003KT P6SM VCSH SCT005 OVC040
     FM200500 VRB02KT P6SM BKN004 OVC050
      AMD LTD TO CLD VIS AND WIND 1912/1915=

USA.gov is the U.S. government's official web portal to all federal, state and local government web resources and services.